createdAt,value
2019-05-20T00:01:09.391Z,29.05
2019-05-20T00:03:40.018Z,28.60
2019-05-20T00:06:10.834Z,28.73
2019-05-20T00:08:41.450Z,28.85
2019-05-20T00:11:12.162Z,28.17
2019-05-20T00:13:42.719Z,27.67
2019-05-20T00:16:13.384Z,27.22
2019-05-20T00:18:44.007Z,29.82
2019-05-20T00:21:14.667Z,28.07
2019-05-20T00:23:46.212Z,28.50
2019-05-20T00:26:16.982Z,30.00
2019-05-20T00:28:47.631Z,27.35
2019-05-20T00:31:18.335Z,27.37
2019-05-20T00:33:49.063Z,27.48
2019-05-20T00:36:19.730Z,24.90
2019-05-20T00:39:08.466Z,25.30
2019-05-20T00:41:39.170Z,24.45
2019-05-20T00:44:09.865Z,24.05
2019-05-20T00:46:40.530Z,23.92
2019-05-20T00:49:12.093Z,26.20
2019-05-20T00:51:42.747Z,24.72
2019-05-20T00:54:13.984Z,26.80
2019-05-20T00:56:44.730Z,25.62
2019-05-20T00:59:16.230Z,25.45
2019-05-20T01:01:46.982Z,27.05
2019-05-20T01:04:17.583Z,26.20
2019-05-20T01:06:48.215Z,26.02
2019-05-20T01:09:19.793Z,24.52
2019-05-20T01:11:49.851Z,23.95
2019-05-20T01:14:20.483Z,24.18
2019-05-20T01:16:51.183Z,24.47
2019-05-20T01:19:22.728Z,24.40
2019-05-20T01:21:53.371Z,23.98
2019-05-20T01:24:24.857Z,24.87
2019-05-20T01:26:55.708Z,24.18
2019-05-20T01:29:27.346Z,24.02
2019-05-20T01:31:58.062Z,24.77
2019-05-20T01:34:28.579Z,25.68
2019-05-20T01:36:59.328Z,23.35
2019-05-20T01:39:31.951Z,25.10
2019-05-20T01:42:02.724Z,23.70
2019-05-20T01:44:33.384Z,23.70
2019-05-20T01:47:04.128Z,24.00
2019-05-20T01:49:35.796Z,25.62
2019-05-20T01:52:06.555Z,23.47
2019-05-20T01:54:38.086Z,24.77
2019-05-20T01:57:08.754Z,24.77
2019-05-20T01:59:40.445Z,23.05
2019-05-20T02:02:11.165Z,24.70
2019-05-20T02:04:42.913Z,23.47
2019-05-20T02:07:13.737Z,24.92
2019-05-20T02:09:45.361Z,25.43
2019-05-20T02:12:16.103Z,24.82
2019-05-20T02:14:50.933Z,24.80
2019-05-20T02:17:21.588Z,24.55
2019-05-20T02:19:52.569Z,25.27
2019-05-20T02:22:24.281Z,24.50
2019-05-20T02:24:55.131Z,24.15
2019-05-20T02:27:25.769Z,24.10
2019-05-20T02:29:56.835Z,24.25
2019-05-20T02:32:27.556Z,24.92
2019-05-20T02:34:58.086Z,23.27
2019-05-20T02:37:28.759Z,24.12
2019-05-20T02:40:00.463Z,24.32
2019-05-20T02:42:31.222Z,24.45
2019-05-20T02:45:01.779Z,24.32
2019-05-20T02:47:32.437Z,23.32
2019-05-20T02:50:06.119Z,22.13
2019-05-20T02:52:36.882Z,23.77
2019-05-20T02:55:08.328Z,23.35
2019-05-20T02:57:39.084Z,22.85
2019-05-20T03:00:11.648Z,24.40
2019-05-20T03:02:42.480Z,24.12
2019-05-20T03:05:13.212Z,25.00
2019-05-20T03:07:43.879Z,23.27
2019-05-20T03:10:15.103Z,23.42
2019-05-20T03:12:45.777Z,24.10
2019-05-20T03:15:16.544Z,23.45
2019-05-20T03:17:46.609Z,24.12
2019-05-20T03:20:18.376Z,22.55
2019-05-20T03:22:49.246Z,23.32
2019-05-20T03:25:20.002Z,23.25
2019-05-20T03:27:50.694Z,22.80
2019-05-20T03:30:22.437Z,23.10
2019-05-20T03:32:53.226Z,22.75
2019-05-20T03:35:23.867Z,21.73
2019-05-20T03:37:54.559Z,22.25
2019-05-20T03:40:26.264Z,44.63
2019-05-20T03:42:57.012Z,41.68
2019-05-20T03:45:27.638Z,40.40
2019-05-20T03:47:58.405Z,36.15
2019-05-20T03:50:30.046Z,25.75
2019-05-20T03:53:00.798Z,24.55
2019-05-20T03:55:31.431Z,23.40
2019-05-20T03:58:02.086Z,22.22
2019-05-20T04:00:44.637Z,21.52
2019-05-20T04:03:15.933Z,20.77
2019-05-20T04:05:46.753Z,20.95
2019-05-20T04:08:17.402Z,19.95
2019-05-20T04:10:48.406Z,18.90
2019-05-20T04:13:19.135Z,18.98
2019-05-20T04:15:49.677Z,17.85
2019-05-20T04:18:20.420Z,18.15
2019-05-20T04:20:52.054Z,41.60
2019-05-20T04:23:23.101Z,46.75
2019-05-20T04:25:54.532Z,36.93
2019-05-20T04:28:25.170Z,25.30
2019-05-20T04:30:57.152Z,21.17
2019-05-20T04:33:27.974Z,19.77
2019-05-20T04:35:58.020Z,19.67
2019-05-20T04:38:28.199Z,18.82
2019-05-20T04:40:59.921Z,19.37
2019-05-20T04:43:30.778Z,18.87
2019-05-20T04:46:01.514Z,19.02
2019-05-20T04:48:32.170Z,19.82
2019-05-20T04:51:02.253Z,19.40
2019-05-20T04:53:32.424Z,20.43
2019-05-20T04:56:03.166Z,18.92
2019-05-20T04:58:33.928Z,18.67
2019-05-20T05:01:13.016Z,18.80
2019-05-20T05:03:46.043Z,19.37
2019-05-20T05:06:16.679Z,17.62
2019-05-20T05:08:47.426Z,16.57
2019-05-20T05:11:18.686Z,16.55
2019-05-20T05:13:49.439Z,14.15
2019-05-20T05:16:20.282Z,13.95
2019-05-20T05:18:51.009Z,11.08
2019-05-20T05:21:25.695Z,9.33
2019-05-20T05:23:59.681Z,9.35
2019-05-20T05:26:31.371Z,9.03
2019-05-20T05:29:03.409Z,7.37
2019-05-20T05:31:35.203Z,5.35
2019-05-20T05:34:06.139Z,5.22
2019-05-20T05:36:36.258Z,4.90
2019-05-20T05:39:07.733Z,4.78
2019-05-20T05:41:38.425Z,4.85
2019-05-20T05:44:09.103Z,5.97
2019-05-20T05:46:39.712Z,9.23
2019-05-20T05:49:11.506Z,39.88
2019-05-20T05:51:42.206Z,27.65
2019-05-20T05:54:12.862Z,7.92
2019-05-20T05:56:43.523Z,6.72
2019-05-20T05:59:14.315Z,5.62
2019-05-20T06:01:44.864Z,4.65
2019-05-20T06:04:16.678Z,4.10
2019-05-20T06:06:47.311Z,4.08
2019-05-20T06:09:19.035Z,3.98
2019-05-20T06:11:49.551Z,4.00
2019-05-20T06:14:20.206Z,4.15
2019-05-20T06:16:50.834Z,13.60
2019-05-20T06:19:23.575Z,24.95
2019-05-20T06:21:54.191Z,9.10
2019-05-20T06:24:24.865Z,6.50
2019-05-20T06:26:56.316Z,4.53
2019-05-20T06:29:32.743Z,4.12
2019-05-20T06:32:03.358Z,3.60
2019-05-20T06:34:34.364Z,3.52
2019-05-20T06:37:09.415Z,3.95
2019-05-20T06:39:41.083Z,3.47
2019-05-20T06:42:11.811Z,3.98
2019-05-20T06:44:52.390Z,3.20
2019-05-20T06:47:14.680Z,3.12
2019-05-20T06:49:46.401Z,2.92
2019-05-20T06:52:17.019Z,2.70
2019-05-20T06:54:47.753Z,2.83
2019-05-20T06:57:18.264Z,2.95
2019-05-20T06:59:51.059Z,3.30
2019-05-20T07:02:21.598Z,3.12
2019-05-20T07:04:52.383Z,3.15
2019-05-20T07:07:22.982Z,3.30
2019-05-20T07:09:59.614Z,3.92
2019-05-20T07:15:02.875Z,4.33
2019-05-20T07:16:48.680Z,4.05
2019-05-20T07:17:35.093Z,4.42
2019-05-20T07:20:10.945Z,3.90
2019-05-20T07:22:55.284Z,4.47
2019-05-20T07:25:13.853Z,3.67
2019-05-20T07:27:45.502Z,3.33
2019-05-20T07:30:17.816Z,2.75
2019-05-20T07:32:48.428Z,2.65
2019-05-20T07:35:29.547Z,2.83
2019-05-20T07:37:51.290Z,2.87
2019-05-20T07:40:32.482Z,3.00
2019-05-20T07:43:03.887Z,2.80
2019-05-20T07:45:36.330Z,1.90
2019-05-20T07:48:07.222Z,1.90
2019-05-20T07:50:39.989Z,1.70
2019-05-20T07:53:12.601Z,2.10
2019-05-20T07:55:46.282Z,2.33
2019-05-20T07:58:18.934Z,2.55
2019-05-20T08:00:49.821Z,2.37
2019-05-20T08:03:20.337Z,2.20
2019-05-20T08:05:51.047Z,2.60
2019-05-20T08:08:21.751Z,2.45
2019-05-20T08:10:52.460Z,2.52
2019-05-20T08:13:23.000Z,2.40
2019-05-20T08:15:53.823Z,1.80
2019-05-20T08:18:24.539Z,1.45
2019-05-20T08:20:55.207Z,1.32
2019-05-20T08:23:25.810Z,1.40
2019-05-20T08:25:56.437Z,1.40
2019-05-20T08:28:27.963Z,1.55
2019-05-20T08:30:59.707Z,1.80
2019-05-20T08:33:30.480Z,1.40
2019-05-20T08:36:01.304Z,1.70
2019-05-20T08:38:31.940Z,1.50
2019-05-20T08:41:03.531Z,1.70
2019-05-20T08:43:35.160Z,2.00
2019-05-20T08:46:06.690Z,1.70
2019-05-20T08:48:37.412Z,1.57
2019-05-20T08:51:08.253Z,1.45
2019-05-20T08:53:38.928Z,1.37
2019-05-20T08:56:09.726Z,1.50
2019-05-20T08:58:40.340Z,1.60
2019-05-20T09:01:12.230Z,1.70
2019-05-20T09:03:44.256Z,1.45
2019-05-20T09:06:15.213Z,1.20
2019-05-20T09:08:47.310Z,1.25
2019-05-20T09:11:18.158Z,1.20
2019-05-20T09:13:48.780Z,1.40
2019-05-20T09:16:19.866Z,1.40
2019-05-20T09:18:50.525Z,1.30
2019-05-20T09:21:21.298Z,1.37
2019-05-20T09:23:51.954Z,1.40
2019-05-20T09:26:22.833Z,1.30
2019-05-20T09:28:54.576Z,1.40
2019-05-20T09:31:25.882Z,1.42
2019-05-20T09:33:56.648Z,1.30
2019-05-20T09:36:27.708Z,1.47
2019-05-20T09:39:00.624Z,1.30
2019-05-20T09:41:32.936Z,1.30
2019-05-20T09:44:03.706Z,1.22
2019-05-20T09:46:34.470Z,1.40
2019-05-20T09:49:06.163Z,1.30
2019-05-20T09:51:36.959Z,1.67
2019-05-20T09:54:07.600Z,1.57
2019-05-20T09:56:38.369Z,1.80
2019-05-20T09:59:10.260Z,2.10
2019-05-20T10:01:41.124Z,1.98
2019-05-20T10:04:11.790Z,1.98
2019-05-20T10:06:43.918Z,1.70
2019-05-20T10:09:14.855Z,1.92
2019-05-20T10:11:45.718Z,1.90
2019-05-20T10:14:16.401Z,2.20
2019-05-20T10:16:47.150Z,1.95
2019-05-20T10:19:18.059Z,1.87
2019-05-20T10:21:48.813Z,1.20
2019-05-20T10:24:19.502Z,1.32
2019-05-20T10:26:50.188Z,1.25
2019-05-20T10:29:21.966Z,1.40
2019-05-20T10:31:52.749Z,1.70
2019-05-20T10:34:24.433Z,2.30
2019-05-20T10:36:55.360Z,3.42
2019-05-20T10:39:26.190Z,1.57
2019-05-20T10:41:56.936Z,1.50
2019-05-20T10:44:27.683Z,1.67
2019-05-20T10:46:58.443Z,1.30
2019-05-20T10:49:31.261Z,2.12
2019-05-20T10:52:02.023Z,3.50
2019-05-20T10:54:32.681Z,3.50
2019-05-20T10:57:03.427Z,2.02
2019-05-20T10:59:35.752Z,2.00
2019-05-20T11:02:08.773Z,2.20
2019-05-20T11:04:39.426Z,2.08
2019-05-20T11:07:10.237Z,1.95
2019-05-20T11:09:41.075Z,1.90
2019-05-20T11:12:14.102Z,1.80
2019-05-20T11:14:45.809Z,1.77
2019-05-20T11:17:17.684Z,1.70
2019-05-20T11:19:48.766Z,1.82
2019-05-20T11:22:19.966Z,2.02
2019-05-20T11:24:50.934Z,1.60
2019-05-20T11:27:22.022Z,1.80
2019-05-20T11:29:54.025Z,1.87
2019-05-20T11:32:28.756Z,2.10
2019-05-20T11:35:01.723Z,1.87
2019-05-20T11:37:33.916Z,2.20
2019-05-20T11:40:07.378Z,2.42
2019-05-20T11:42:48.177Z,2.33
2019-05-20T11:45:23.121Z,2.25
2019-05-20T11:48:06.725Z,2.35
2019-05-20T11:50:38.642Z,2.10
2019-05-20T11:53:09.572Z,2.25
2019-05-20T11:55:40.169Z,2.20
2019-05-20T11:58:15.886Z,2.30
2019-05-20T12:00:44.126Z,2.50
2019-05-20T12:03:14.842Z,3.72
2019-05-20T12:05:45.455Z,6.62
2019-05-20T12:08:16.142Z,2.83
2019-05-20T12:10:46.833Z,2.40
2019-05-20T12:13:19.035Z,2.10
2019-05-20T12:15:50.542Z,1.70
2019-05-20T12:18:21.189Z,1.80
2019-05-20T12:20:52.957Z,2.30
2019-05-20T12:23:23.678Z,1.80
2019-05-20T12:25:54.267Z,1.60
2019-05-20T12:28:24.911Z,1.60
2019-05-20T12:30:56.403Z,1.62
2019-05-20T12:33:27.111Z,1.37
2019-05-20T12:35:57.646Z,1.30
2019-05-20T12:38:28.469Z,1.40
2019-05-20T12:40:59.018Z,1.20
2019-05-20T12:43:29.656Z,1.00
2019-05-20T12:46:00.401Z,1.12
2019-05-20T12:48:31.119Z,1.20
2019-05-20T12:51:01.726Z,1.00
2019-05-20T12:53:32.350Z,1.45
2019-05-20T12:56:02.864Z,1.30
2019-05-20T12:58:33.570Z,1.65
2019-05-20T13:01:04.172Z,2.10
2019-05-20T13:03:34.869Z,1.92
2019-05-20T13:06:05.571Z,2.20
2019-05-20T13:08:36.339Z,4.15
2019-05-20T13:11:06.877Z,6.55
2019-05-20T13:13:38.867Z,5.25
2019-05-20T13:16:10.550Z,4.30
2019-05-20T13:18:55.044Z,2.62
2019-05-20T13:21:13.386Z,2.15
2019-05-20T13:23:48.007Z,1.67
2019-05-20T13:26:16.302Z,0.80
2019-05-20T13:28:47.070Z,0.80
2019-05-20T13:31:17.703Z,1.95
2019-05-20T13:33:48.466Z,1.50
2019-05-20T13:36:19.148Z,2.12
2019-05-20T13:38:51.077Z,1.75
2019-05-20T13:41:21.723Z,1.15
2019-05-20T13:43:53.495Z,1.40
2019-05-20T13:46:24.126Z,1.20
2019-05-20T13:48:54.996Z,2.40
2019-05-20T13:51:26.645Z,3.20
2019-05-20T13:53:57.402Z,3.50
2019-05-20T13:56:28.179Z,3.90
2019-05-20T13:59:00.008Z,4.55
2019-05-20T14:01:30.609Z,3.70
2019-05-20T14:04:01.561Z,3.80
2019-05-20T14:06:32.304Z,2.00
2019-05-20T14:09:07.509Z,1.70
2019-05-20T14:11:37.366Z,0.95
2019-05-20T14:14:08.004Z,5.42
2019-05-20T14:16:38.579Z,2.37
2019-05-20T14:19:10.332Z,0.90
2019-05-20T14:21:40.869Z,0.70
2019-05-20T14:24:11.577Z,0.75
2019-05-20T14:26:42.193Z,0.90
2019-05-20T14:29:13.938Z,0.90
2019-05-20T14:31:45.482Z,1.52
2019-05-20T14:34:16.099Z,1.12
2019-05-20T14:36:46.657Z,0.90
2019-05-20T14:39:18.628Z,0.78
2019-05-20T14:41:49.331Z,0.55
2019-05-20T14:44:20.061Z,0.72
2019-05-20T14:46:50.579Z,0.50
2019-05-20T14:49:22.211Z,0.60
2019-05-20T14:51:53.830Z,0.62
2019-05-20T14:54:24.534Z,0.60
2019-05-20T14:56:55.052Z,0.60
2019-05-20T14:59:26.687Z,0.50
2019-05-20T15:01:57.271Z,0.60
2019-05-20T15:04:27.898Z,0.60
2019-05-20T15:06:58.410Z,0.70
2019-05-20T15:09:31.023Z,0.62
2019-05-20T15:12:01.560Z,0.75
2019-05-20T15:14:32.250Z,0.60
2019-05-20T15:17:02.774Z,0.75
2019-05-20T15:19:34.618Z,0.60
2019-05-20T15:22:05.430Z,0.80
2019-05-20T15:24:36.131Z,0.70
2019-05-20T15:27:07.707Z,0.93
2019-05-20T15:29:39.477Z,0.72
2019-05-20T15:32:10.987Z,0.70
2019-05-20T15:34:41.635Z,0.88
2019-05-20T15:37:12.620Z,0.80
2019-05-20T15:39:44.434Z,0.80
2019-05-20T15:42:14.964Z,0.78
2019-05-20T15:44:45.643Z,2.30
2019-05-20T15:47:18.741Z,1.45
2019-05-20T15:49:49.649Z,1.05
2019-05-20T15:52:20.164Z,0.60
2019-05-20T15:54:50.899Z,0.68
2019-05-20T15:57:21.466Z,0.60
2019-05-20T15:59:52.117Z,0.60
2019-05-20T16:02:22.664Z,0.85
2019-05-20T16:04:53.303Z,0.60
2019-05-20T16:07:24.907Z,0.70
2019-05-20T16:09:55.605Z,0.70
2019-05-20T16:12:26.314Z,0.65
2019-05-20T16:14:56.933Z,0.68
2019-05-20T16:17:27.460Z,0.88
2019-05-20T16:19:58.309Z,0.85
2019-05-20T16:22:28.907Z,0.60
2019-05-20T16:24:59.705Z,0.70
2019-05-20T16:27:32.766Z,0.60
2019-05-20T16:30:06.680Z,0.82
2019-05-20T16:32:38.142Z,0.70
2019-05-20T16:35:08.938Z,0.70
2019-05-20T16:37:39.497Z,5.53
2019-05-20T16:40:12.856Z,2.62
2019-05-20T16:42:43.499Z,0.85
2019-05-20T16:45:14.504Z,0.90
2019-05-20T16:47:45.009Z,0.50
2019-05-20T16:50:18.578Z,0.90
2019-05-20T16:52:49.193Z,0.80
2019-05-20T16:55:20.213Z,2.33
2019-05-20T16:57:50.829Z,1.00
2019-05-20T17:00:31.489Z,1.75
2019-05-20T17:02:55.005Z,3.02
2019-05-20T17:05:25.823Z,2.15
2019-05-20T17:07:56.545Z,0.98
2019-05-20T17:10:27.451Z,5.03
2019-05-20T17:12:59.060Z,2.45
2019-05-20T17:15:29.696Z,1.30
2019-05-20T17:18:00.192Z,1.17
2019-05-20T17:20:30.809Z,0.90
2019-05-20T17:23:01.460Z,0.95
2019-05-20T17:25:32.265Z,1.40
2019-05-20T17:28:02.767Z,0.80
2019-05-20T17:30:45.099Z,1.00
2019-05-20T17:33:05.790Z,1.00
2019-05-20T17:35:37.614Z,0.80
2019-05-20T17:38:08.238Z,0.72
2019-05-20T17:40:39.009Z,0.70
2019-05-20T17:43:09.748Z,0.93
2019-05-20T17:45:40.542Z,0.70
2019-05-20T17:48:11.254Z,1.10
2019-05-20T17:50:42.132Z,1.00
2019-05-20T17:53:12.655Z,1.10
2019-05-20T17:55:43.373Z,1.30
2019-05-20T17:58:13.895Z,1.27
2019-05-20T18:00:44.793Z,3.10
2019-05-20T18:03:15.399Z,3.70
2019-05-20T18:05:46.045Z,15.43
2019-05-20T18:08:16.555Z,7.25
2019-05-20T18:10:47.399Z,17.30
2019-05-20T18:13:18.038Z,21.35
2019-05-20T18:15:48.711Z,21.65
2019-05-20T18:18:20.334Z,9.63
2019-05-20T18:20:51.086Z,14.03
2019-05-20T18:23:21.691Z,13.45
2019-05-20T18:25:52.336Z,10.65
2019-05-20T18:28:22.978Z,13.32
2019-05-20T18:30:54.887Z,9.88
2019-05-20T18:33:25.896Z,9.60
2019-05-20T18:35:56.684Z,16.12
2019-05-20T18:38:31.919Z,11.65
2019-05-20T18:41:08.127Z,13.62
2019-05-20T18:43:45.273Z,8.20
2019-05-20T18:46:19.042Z,20.25
2019-05-20T18:48:51.266Z,16.37
2019-05-20T18:51:34.930Z,4.37
2019-05-20T18:54:13.291Z,3.70
2019-05-20T18:56:48.240Z,6.85
2019-05-20T18:59:22.338Z,4.22
2019-05-20T19:02:07.181Z,3.60
2019-05-20T19:04:40.834Z,2.85
2019-05-20T19:07:14.403Z,2.75
2019-05-20T19:09:48.577Z,4.00
2019-05-20T19:12:22.860Z,2.50
2019-05-20T19:14:56.485Z,3.55
2019-05-20T19:17:35.242Z,4.30
2019-05-20T19:20:15.832Z,4.03
2019-05-20T19:22:49.778Z,3.30
2019-05-20T19:25:35.644Z,2.80
2019-05-20T19:27:54.913Z,2.70
2019-05-20T19:30:32.572Z,5.67
2019-05-20T19:33:07.190Z,4.25
2019-05-20T19:35:39.564Z,2.40
2019-05-20T19:38:10.609Z,1.45
2019-05-20T19:40:41.470Z,1.52
2019-05-20T19:43:12.171Z,1.67
2019-05-20T19:45:42.973Z,1.30
2019-05-20T19:48:13.742Z,1.30
2019-05-20T19:50:45.489Z,1.95
2019-05-20T19:53:16.729Z,1.47
2019-05-20T19:55:47.282Z,1.10
2019-05-20T19:58:19.010Z,1.20
2019-05-20T20:00:49.822Z,1.32
2019-05-20T20:03:20.622Z,0.80
2019-05-20T20:05:51.311Z,1.00
2019-05-20T20:08:22.894Z,1.05
2019-05-20T20:10:54.579Z,1.20
2019-05-20T20:13:25.352Z,1.10
2019-05-20T20:15:55.895Z,1.20
2019-05-20T20:18:26.728Z,1.10
2019-05-20T20:20:57.313Z,1.27
2019-05-20T20:23:28.064Z,1.02
2019-05-20T20:25:58.586Z,1.17
2019-05-20T20:28:29.301Z,1.30
2019-05-20T20:30:59.957Z,1.02
2019-05-20T20:33:30.580Z,0.80
2019-05-20T20:36:01.102Z,1.05
2019-05-20T20:38:31.699Z,1.20
2019-05-20T20:41:02.429Z,7.33
2019-05-20T20:43:33.278Z,13.43
2019-05-20T20:46:03.923Z,2.58
2019-05-20T20:48:34.698Z,1.27
2019-05-20T20:51:05.709Z,1.10
2019-05-20T20:53:37.021Z,1.02
2019-05-20T20:56:22.724Z,1.00
2019-05-20T20:58:40.804Z,0.88
2019-05-20T21:01:11.293Z,0.90
2019-05-20T21:03:41.914Z,1.10
2019-05-20T21:06:24.589Z,8.68
2019-05-20T21:08:59.217Z,4.92
2019-05-20T21:11:29.711Z,1.05
2019-05-20T21:14:00.480Z,1.20
2019-05-20T21:16:31.094Z,0.80
2019-05-20T21:19:01.804Z,0.90
2019-05-20T21:21:32.547Z,0.80
2019-05-20T21:24:03.170Z,1.27
2019-05-20T21:26:34.670Z,0.80
2019-05-20T21:29:05.299Z,1.17
2019-05-20T21:31:35.932Z,1.05
2019-05-20T21:34:06.694Z,1.20
2019-05-20T21:36:47.041Z,1.07
2019-05-20T21:39:11.671Z,0.80
2019-05-20T21:41:42.191Z,1.05
2019-05-20T21:44:13.066Z,1.00
2019-05-20T21:46:44.677Z,0.90
2019-05-20T21:49:16.374Z,0.90
2019-05-20T21:51:46.894Z,0.90
2019-05-20T21:54:17.718Z,0.90
2019-05-20T21:56:50.085Z,1.00
2019-05-20T21:59:21.545Z,0.82
2019-05-20T22:01:52.251Z,0.80
2019-05-20T22:04:22.989Z,1.00
2019-05-20T22:06:53.489Z,1.10
2019-05-20T22:09:26.208Z,0.80
2019-05-20T22:11:56.786Z,0.80
2019-05-20T22:14:27.480Z,0.90
2019-05-20T22:16:58.006Z,1.07
2019-05-20T22:19:29.657Z,0.72
2019-05-20T22:22:18.079Z,0.90
2019-05-20T22:24:48.806Z,0.82
2019-05-20T22:27:19.308Z,0.93
2019-05-20T22:29:50.025Z,1.00
2019-05-20T22:32:20.529Z,1.00
2019-05-20T22:34:53.575Z,1.00
2019-05-20T22:37:23.314Z,0.95
2019-05-20T22:39:54.887Z,0.98
2019-05-20T22:42:25.504Z,1.00
2019-05-20T22:44:56.252Z,1.10
2019-05-20T22:47:26.746Z,1.30
2019-05-20T22:49:58.328Z,0.98
2019-05-20T22:52:28.823Z,0.90
2019-05-20T22:54:59.547Z,1.10
2019-05-20T22:57:30.036Z,0.90
2019-05-20T23:00:01.685Z,0.80
2019-05-20T23:02:33.739Z,0.85
2019-05-20T23:05:04.859Z,0.80
2019-05-20T23:07:35.353Z,1.10
2019-05-20T23:10:08.839Z,0.70
2019-05-20T23:12:39.425Z,1.00
2019-05-20T23:15:10.309Z,0.90
2019-05-20T23:17:40.799Z,0.82
2019-05-20T23:20:12.576Z,0.80
2019-05-20T23:22:43.077Z,1.15
2019-05-20T23:25:13.712Z,0.90
2019-05-20T23:27:44.226Z,0.90
2019-05-20T23:30:15.229Z,0.93
2019-05-20T23:32:45.848Z,1.02
2019-05-20T23:35:16.489Z,0.90
2019-05-20T23:37:47.135Z,1.02
2019-05-20T23:40:19.020Z,0.70
2019-05-20T23:42:49.535Z,0.80
2019-05-20T23:45:20.317Z,0.90
2019-05-20T23:47:50.914Z,1.27
2019-05-20T23:50:22.590Z,0.90
2019-05-20T23:52:53.099Z,0.80
2019-05-20T23:55:23.895Z,0.90
2019-05-20T23:57:54.396Z,1.15
